NK87 weather

Merkle Airport
Clarence Center, New York, United States

Public forecast

Using degrees Fahrenheit for public forecast. Weather courtesy of forecast.io.

METAR (pilot weather report)

Closest report is Buffalo Niagara International Airport, 9.6 nm (17.7 km) SW. Retrieved 2019/06/16 23:54 UTC (28 minutes ago):

KBUF 162354Z 07005KT 10SM FEW090 BKN130 17/11 A2990 RMK AO2 SLP126 60000 T01670111 10172 20144 50005

TAF (pilot weather forecast)

Forecast is more than 12 hours old.

Closest forecast is Buffalo Niagara International Airport, 9.6 nm (17.7 km) SW. Retrieved 2019/06/16 00:36 UTC (24 hours ago):

TAF KBUF 162332Z 1700/1724 05005KT P6SM OVC080 FM170500 VRB03KT P6SM SCT090 TEMPO 1708/1712 4SM BR FM171300 09005KT P6SM SCT080 FM171400 09006KT P6SM BKN080